APK229 FMCZ-HUEN
Flight info
| Callsign | APK229 |
|---|---|
| Flight time | N/A |
| Altitude | 34000 |
| Route | GALBA UA401 NN |
| Aircraft | B77W/H-SDE1E2E3FGHIJ2J3J4J5M1RWXY/LB1D1 |
Departure
| Time | N/A |
|---|---|
| Airport | Dzaoudzi Pamandzi International Airport (FMCZ) |
Arrival
| Time | 2026-04-28 19:03 |
|---|---|
| Airport | Entebbe International Airport (HUEN) |
| Time | Latitude | Longitude | Altitude | Speed | Heading |
|---|---|---|---|---|---|
| 2026-04-28 17:01 | -11.03502 | 42.66264 | 34001 ft | 487 kts | 322° |
| 2026-04-28 17:02 | -10.98141 | 42.62099 | 34001 ft | 487 kts | 322° |
| 2026-04-28 17:02 | -10.92744 | 42.57909 | 34001 ft | 487 kts | 322° |
| 2026-04-28 17:03 | -10.84657 | 42.51634 | 34001 ft | 487 kts | 322° |
| 2026-04-28 17:03 | -10.79268 | 42.47453 | 34001 ft | 487 kts | 322° |
| 2026-04-28 17:04 | -10.71225 | 42.41123 | 33999 ft | 487 kts | 320° |
| 2026-04-28 17:05 | -10.64327 | 42.35182 | 34000 ft | 487 kts | 319° |
| 2026-04-28 17:06 | -10.56566 | 42.28489 | 34000 ft | 487 kts | 320° |
| 2026-04-28 17:06 | -10.48807 | 42.21877 | 34000 ft | 487 kts | 320° |
| 2026-04-28 17:07 | -10.43599 | 42.17448 | 34001 ft | 487 kts | 320° |
| 2026-04-28 17:07 | -10.38402 | 42.13028 | 34002 ft | 487 kts | 320° |
| 2026-04-28 17:08 | -10.33205 | 42.08609 | 34001 ft | 487 kts | 320° |
| 2026-04-28 17:08 | -10.28006 | 42.04190 | 34000 ft | 487 kts | 320° |
| 2026-04-28 17:09 | -10.22809 | 41.99774 | 34001 ft | 487 kts | 320° |
| 2026-04-28 17:09 | -10.17603 | 41.95353 | 34002 ft | 487 kts | 320° |
| 2026-04-28 17:10 | -10.12398 | 41.90934 | 34000 ft | 487 kts | 320° |
| 2026-04-28 17:10 | -10.07228 | 41.86548 | 34002 ft | 487 kts | 320° |
| 2026-04-28 17:11 | -10.02018 | 41.82129 | 34002 ft | 487 kts | 320° |
| 2026-04-28 17:11 | -9.96818 | 41.77721 | 34002 ft | 487 kts | 320° |
| 2026-04-28 17:12 | -9.91613 | 41.73310 | 34001 ft | 487 kts | 320° |
| 2026-04-28 17:12 | -9.86411 | 41.68903 | 34000 ft | 487 kts | 320° |
| 2026-04-28 17:13 | -9.81208 | 41.64498 | 34002 ft | 487 kts | 320° |
| 2026-04-28 17:13 | -9.76001 | 41.60091 | 34002 ft | 487 kts | 320° |
| 2026-04-28 17:14 | -9.70791 | 41.55683 | 34000 ft | 487 kts | 320° |
| 2026-04-28 17:14 | -9.65621 | 41.51311 | 34002 ft | 487 kts | 320° |
| 2026-04-28 17:15 | -9.60413 | 41.46909 | 34002 ft | 487 kts | 320° |
| 2026-04-28 17:15 | -9.55207 | 41.42510 | 34000 ft | 487 kts | 320° |
| 2026-04-28 17:16 | -9.49999 | 41.38110 | 34000 ft | 487 kts | 320° |
| 2026-04-28 17:16 | -9.44793 | 41.33713 | 34002 ft | 487 kts | 320° |
| 2026-04-28 17:17 | -9.39582 | 41.29316 | 34002 ft | 487 kts | 320° |
| 2026-04-28 17:17 | -9.34368 | 41.24918 | 34002 ft | 487 kts | 320° |
| 2026-04-28 17:18 | -9.29156 | 41.20521 | 34000 ft | 487 kts | 320° |
| 2026-04-28 17:18 | -9.23947 | 41.16128 | 34001 ft | 487 kts | 320° |
| 2026-04-28 17:19 | -9.18765 | 41.11759 | 34001 ft | 487 kts | 320° |
| 2026-04-28 17:19 | -9.13555 | 41.07367 | 34000 ft | 487 kts | 320° |
| 2026-04-28 17:20 | -9.09186 | 41.03687 | 34002 ft | 487 kts | 320° |
| 2026-04-28 17:20 | -9.03127 | 40.98583 | 34002 ft | 487 kts | 320° |
| 2026-04-28 17:21 | -8.97914 | 40.94195 | 34002 ft | 487 kts | 320° |
| 2026-04-28 17:22 | -8.90101 | 40.87621 | 34001 ft | 487 kts | 320° |
| 2026-04-28 17:22 | -8.84882 | 40.83232 | 34002 ft | 487 kts | 320° |
| 2026-04-28 17:23 | -8.77091 | 40.76682 | 34002 ft | 487 kts | 320° |
| 2026-04-28 17:23 | -8.71875 | 40.72299 | 34001 ft | 487 kts | 320° |
| 2026-04-28 17:24 | -8.66661 | 40.67920 | 34000 ft | 487 kts | 320° |
| 2026-04-28 17:24 | -8.61441 | 40.63537 | 34002 ft | 487 kts | 320° |
| 2026-04-28 17:25 | -8.53619 | 40.56973 | 34001 ft | 487 kts | 320° |
| 2026-04-28 17:26 | -8.48403 | 40.52597 | 34002 ft | 487 kts | 320° |
| 2026-04-28 17:26 | -8.43184 | 40.48220 | 34002 ft | 487 kts | 320° |
| 2026-04-28 17:27 | -8.37993 | 40.43869 | 34000 ft | 487 kts | 320° |
| 2026-04-28 17:27 | -8.32773 | 40.39494 | 34001 ft | 487 kts | 320° |
| 2026-04-28 17:28 | -8.27554 | 40.35122 | 34002 ft | 487 kts | 320° |
| 2026-04-28 17:28 | -8.19719 | 40.28560 | 34002 ft | 487 kts | 320° |
| 2026-04-28 17:29 | -8.14501 | 40.24193 | 34002 ft | 487 kts | 320° |
| 2026-04-28 17:30 | -8.06669 | 40.17637 | 34001 ft | 487 kts | 320° |
| 2026-04-28 17:30 | -7.98874 | 40.11112 | 34002 ft | 487 kts | 320° |
| 2026-04-28 17:31 | -7.91049 | 40.04565 | 34002 ft | 487 kts | 320° |
| 2026-04-28 17:32 | -7.83216 | 39.98014 | 34002 ft | 487 kts | 320° |
| 2026-04-28 17:32 | -7.77991 | 39.93647 | 34002 ft | 487 kts | 320° |
| 2026-04-28 17:33 | -7.72768 | 39.89283 | 34002 ft | 487 kts | 320° |
| 2026-04-28 17:33 | -7.68430 | 39.85658 | 34000 ft | 487 kts | 320° |
| 2026-04-28 17:34 | -7.62325 | 39.80560 | 34001 ft | 487 kts | 320° |
| 2026-04-28 17:34 | -7.57098 | 39.76196 | 34002 ft | 487 kts | 320° |
| 2026-04-28 17:35 | -7.51909 | 39.71866 | 34002 ft | 487 kts | 320° |
| 2026-04-28 17:35 | -7.46686 | 39.67509 | 34000 ft | 487 kts | 320° |
| 2026-04-28 17:36 | -7.41463 | 39.63153 | 34001 ft | 487 kts | 320° |
| 2026-04-28 17:36 | -7.36238 | 39.58796 | 34002 ft | 487 kts | 320° |
| 2026-04-28 17:37 | -7.31013 | 39.54441 | 34001 ft | 487 kts | 320° |
| 2026-04-28 17:37 | -7.25786 | 39.50086 | 34000 ft | 487 kts | 320° |
| 2026-04-28 17:38 | -7.20563 | 39.45735 | 34002 ft | 487 kts | 320° |
| 2026-04-28 17:38 | -7.15337 | 39.41383 | 34002 ft | 487 kts | 320° |
| 2026-04-28 17:39 | -7.10100 | 39.37024 | 34002 ft | 487 kts | 320° |
| 2026-04-28 17:40 | -7.02294 | 39.30527 | 34002 ft | 487 kts | 320° |
| 2026-04-28 17:40 | -6.97065 | 39.26176 | 34002 ft | 487 kts | 320° |
| 2026-04-28 17:41 | -6.91832 | 39.21823 | 33999 ft | 487 kts | 320° |
| 2026-04-28 17:41 | -6.86724 | 39.17348 | 34003 ft | 487 kts | 316° |
| 2026-04-28 17:42 | -6.81882 | 39.12574 | 34007 ft | 487 kts | 315° |
| 2026-04-28 17:42 | -6.77061 | 39.07781 | 34000 ft | 487 kts | 315° |
| 2026-04-28 17:43 | -6.72223 | 39.03004 | 34002 ft | 487 kts | 315° |
| 2026-04-28 17:43 | -6.67369 | 38.98232 | 34002 ft | 487 kts | 315° |
| 2026-04-28 17:44 | -6.62521 | 38.93470 | 34000 ft | 487 kts | 315° |
| 2026-04-28 17:44 | -6.57671 | 38.88708 | 34002 ft | 487 kts | 315° |
| 2026-04-28 17:45 | -6.52819 | 38.83944 | 34002 ft | 487 kts | 315° |
| 2026-04-28 17:45 | -6.48000 | 38.79212 | 34000 ft | 487 kts | 315° |
| 2026-04-28 17:46 | -6.43151 | 38.74453 | 34001 ft | 487 kts | 315° |
| 2026-04-28 17:46 | -6.38295 | 38.69687 | 34002 ft | 487 kts | 315° |
| 2026-04-28 17:47 | -6.33445 | 38.64930 | 34001 ft | 487 kts | 315° |
| 2026-04-28 17:47 | -6.28595 | 38.60173 | 34000 ft | 487 kts | 315° |
| 2026-04-28 17:48 | -6.23744 | 38.55416 | 34003 ft | 487 kts | 315° |
| 2026-04-28 17:48 | -6.19712 | 38.51462 | 34000 ft | 487 kts | 315° |
| 2026-04-28 17:49 | -6.14040 | 38.45899 | 34000 ft | 487 kts | 315° |
| 2026-04-28 17:49 | -6.09194 | 38.41131 | 34002 ft | 487 kts | 315° |
| 2026-04-28 17:50 | -6.04353 | 38.36365 | 34000 ft | 487 kts | 315° |
| 2026-04-28 17:50 | -5.99545 | 38.31633 | 34000 ft | 487 kts | 315° |
| 2026-04-28 17:51 | -5.94693 | 38.26862 | 34002 ft | 487 kts | 315° |
| 2026-04-28 17:51 | -5.89851 | 38.22101 | 34001 ft | 487 kts | 315° |
| 2026-04-28 17:52 | -5.85829 | 38.18147 | 34002 ft | 487 kts | 315° |
| 2026-04-28 17:52 | -5.78562 | 38.11005 | 34001 ft | 487 kts | 315° |
| 2026-04-28 17:53 | -5.73717 | 38.06243 | 34000 ft | 487 kts | 315° |
| 2026-04-28 17:53 | -5.68873 | 38.01485 | 34002 ft | 487 kts | 315° |
| 2026-04-28 17:54 | -5.64039 | 37.96711 | 34001 ft | 487 kts | 315° |
| 2026-04-28 17:54 | -5.59218 | 37.91934 | 33999 ft | 487 kts | 315° |
| 2026-04-28 17:55 | -5.54392 | 37.87154 | 34002 ft | 487 kts | 315° |
| 2026-04-28 17:55 | -5.49571 | 37.82384 | 34000 ft | 487 kts | 315° |
| 2026-04-28 17:56 | -5.44742 | 37.77607 | 34002 ft | 487 kts | 315° |
| 2026-04-28 17:56 | -5.39921 | 37.72840 | 34001 ft | 487 kts | 315° |
| 2026-04-28 17:57 | -5.35095 | 37.68069 | 34000 ft | 487 kts | 315° |
| 2026-04-28 17:57 | -5.30299 | 37.63329 | 34002 ft | 487 kts | 315° |
| 2026-04-28 17:58 | -5.25468 | 37.58554 | 34000 ft | 487 kts | 315° |
| 2026-04-28 17:58 | -5.20637 | 37.53781 | 34000 ft | 487 kts | 315° |
| 2026-04-28 17:59 | -5.15811 | 37.49014 | 34002 ft | 487 kts | 315° |
| 2026-04-28 17:59 | -5.10980 | 37.44244 | 34002 ft | 487 kts | 315° |
| 2026-04-28 18:00 | -5.06152 | 37.39477 | 34000 ft | 487 kts | 315° |
| 2026-04-28 18:00 | -5.01318 | 37.34705 | 34002 ft | 487 kts | 315° |
| 2026-04-28 18:01 | -4.96521 | 37.29971 | 34002 ft | 487 kts | 315° |
| 2026-04-28 18:01 | -4.91691 | 37.25205 | 34000 ft | 487 kts | 315° |
| 2026-04-28 18:02 | -4.86863 | 37.20443 | 34001 ft | 487 kts | 315° |
| 2026-04-28 18:02 | -4.82033 | 37.15679 | 34002 ft | 487 kts | 315° |
| 2026-04-28 18:03 | -4.77202 | 37.10914 | 34002 ft | 487 kts | 315° |
| 2026-04-28 18:03 | -4.72369 | 37.06150 | 34001 ft | 487 kts | 315° |
| 2026-04-28 18:04 | -4.67539 | 37.01389 | 34002 ft | 487 kts | 315° |
| 2026-04-28 18:04 | -4.62710 | 36.96629 | 34002 ft | 487 kts | 315° |
| 2026-04-28 18:05 | -4.58697 | 36.92674 | 34000 ft | 487 kts | 315° |
| 2026-04-28 18:05 | -4.53048 | 36.87108 | 34002 ft | 487 kts | 315° |
| 2026-04-28 18:06 | -4.48219 | 36.82349 | 34002 ft | 487 kts | 315° |
| 2026-04-28 18:06 | -4.43399 | 36.77581 | 34006 ft | 487 kts | 315° |
| 2026-04-28 18:07 | -4.38575 | 36.72803 | 33998 ft | 487 kts | 315° |
| 2026-04-28 18:07 | -4.33790 | 36.68066 | 34002 ft | 487 kts | 315° |
| 2026-04-28 18:08 | -4.28970 | 36.63296 | 34002 ft | 487 kts | 315° |
| 2026-04-28 18:08 | -4.24152 | 36.58530 | 34001 ft | 487 kts | 315° |
| 2026-04-28 18:09 | -4.19326 | 36.53757 | 34000 ft | 487 kts | 315° |
| 2026-04-28 18:09 | -4.14508 | 36.48992 | 34002 ft | 487 kts | 315° |
| 2026-04-28 18:10 | -4.09688 | 36.44226 | 34002 ft | 487 kts | 315° |
| 2026-04-28 18:10 | -4.04864 | 36.39456 | 34000 ft | 487 kts | 315° |
| 2026-04-28 18:11 | -4.00045 | 36.34691 | 34002 ft | 487 kts | 315° |
| 2026-04-28 18:11 | -3.95228 | 36.29930 | 34002 ft | 487 kts | 315° |
| 2026-04-28 18:12 | -3.90255 | 36.25319 | 34002 ft | 487 kts | 318° |
| 2026-04-28 18:12 | -3.85202 | 36.20861 | 34000 ft | 487 kts | 318° |
| 2026-04-28 18:13 | -3.80140 | 36.16344 | 34001 ft | 487 kts | 317° |
| 2026-04-28 18:13 | -3.75100 | 36.11802 | 34001 ft | 487 kts | 317° |
| 2026-04-28 18:14 | -3.70063 | 36.07260 | 34002 ft | 487 kts | 317° |
| 2026-04-28 18:14 | -3.65084 | 36.02664 | 33999 ft | 487 kts | 315° |
| 2026-04-28 18:15 | -3.60280 | 35.97887 | 34002 ft | 487 kts | 315° |
| 2026-04-28 18:15 | -3.55449 | 35.93139 | 34002 ft | 487 kts | 315° |
| 2026-04-28 18:16 | -3.50584 | 35.88421 | 34001 ft | 487 kts | 315° |
| 2026-04-28 18:16 | -3.45707 | 35.83702 | 34000 ft | 487 kts | 315° |
| 2026-04-28 18:17 | -3.40875 | 35.79021 | 34002 ft | 487 kts | 315° |
| 2026-04-28 18:17 | -3.36010 | 35.74305 | 34000 ft | 487 kts | 315° |
| 2026-04-28 18:18 | -3.31138 | 35.69582 | 34000 ft | 487 kts | 315° |
| 2026-04-28 18:18 | -3.27062 | 35.65631 | 34000 ft | 487 kts | 315° |
| 2026-04-28 18:19 | -3.21403 | 35.60147 | 34001 ft | 487 kts | 315° |
| 2026-04-28 18:19 | -3.16537 | 35.55432 | 34000 ft | 487 kts | 315° |
| 2026-04-28 18:20 | -3.11674 | 35.50719 | 34002 ft | 487 kts | 315° |
| 2026-04-28 18:20 | -3.06806 | 35.46002 | 34002 ft | 487 kts | 315° |
| 2026-04-28 18:21 | -3.01966 | 35.41314 | 34000 ft | 487 kts | 315° |
| 2026-04-28 18:21 | -2.97110 | 35.36599 | 34002 ft | 487 kts | 315° |
| 2026-04-28 18:22 | -2.92254 | 35.31881 | 34002 ft | 487 kts | 315° |
| 2026-04-28 18:22 | -2.87392 | 35.27157 | 34001 ft | 487 kts | 315° |
| 2026-04-28 18:23 | -2.82535 | 35.22439 | 34002 ft | 487 kts | 315° |
| 2026-04-28 18:23 | -2.77681 | 35.17722 | 32828 ft | 487 kts | 318° |
| 2026-04-28 18:24 | -2.75243 | 35.15355 | 33118 ft | 488 kts | 318° |
| 2026-04-28 18:24 | -2.73630 | 35.13789 | 33273 ft | 488 kts | 318° |
| 2026-04-28 18:24 | -2.70363 | 35.10618 | 33596 ft | 489 kts | 318° |
| 2026-04-28 18:24 | -2.67919 | 35.08247 | 33840 ft | 490 kts | 318° |
| 2026-04-28 18:25 | -2.65469 | 35.05868 | 33991 ft | 492 kts | 318° |
| 2026-04-28 18:25 | -2.63002 | 35.03474 | 34083 ft | 495 kts | 317° |
| 2026-04-28 18:26 | -2.55530 | 34.96221 | 34134 ft | 500 kts | 317° |
| 2026-04-28 18:26 | -2.50559 | 34.91395 | 34140 ft | 501 kts | 317° |
| 2026-04-28 18:27 | -2.45739 | 34.86716 | 34137 ft | 499 kts | 316° |
| 2026-04-28 18:27 | -2.40882 | 34.82003 | 34093 ft | 482 kts | 316° |
| 2026-04-28 18:27 | -2.38512 | 34.79701 | 34123 ft | 471 kts | 316° |
| 2026-04-28 18:28 | -2.36165 | 34.77424 | 34104 ft | 468 kts | 316° |
| 2026-04-28 18:28 | -2.31517 | 34.72915 | 34103 ft | 462 kts | 316° |
| 2026-04-28 18:29 | -2.26955 | 34.68489 | 34090 ft | 458 kts | 317° |
| 2026-04-28 18:29 | -2.22406 | 34.64077 | 34091 ft | 454 kts | 317° |
| 2026-04-28 18:30 | -2.17891 | 34.59698 | 34087 ft | 451 kts | 317° |
| 2026-04-28 18:30 | -2.13404 | 34.55345 | 34101 ft | 448 kts | 317° |
| 2026-04-28 18:31 | -2.08942 | 34.51018 | 34099 ft | 446 kts | 317° |
| 2026-04-28 18:31 | -2.04497 | 34.46706 | 34082 ft | 444 kts | 317° |
| 2026-04-28 18:32 | -2.00101 | 34.42446 | 34093 ft | 442 kts | 318° |
| 2026-04-28 18:32 | -1.95678 | 34.38182 | 34093 ft | 441 kts | 318° |
| 2026-04-28 18:33 | -1.91275 | 34.33940 | 34088 ft | 439 kts | 318° |
| 2026-04-28 18:33 | -1.86884 | 34.29706 | 34082 ft | 438 kts | 318° |
| 2026-04-28 18:34 | -1.82500 | 34.25478 | 34079 ft | 437 kts | 319° |
| 2026-04-28 18:34 | -1.78140 | 34.21262 | 34074 ft | 436 kts | 318° |
| 2026-04-28 18:35 | -1.73785 | 34.17040 | 34076 ft | 435 kts | 318° |
| 2026-04-28 18:35 | -1.69443 | 34.12829 | 34080 ft | 434 kts | 318° |
| 2026-04-28 18:36 | -1.65102 | 34.08620 | 34074 ft | 436 kts | 318° |
| 2026-04-28 18:36 | -1.60667 | 34.04324 | 34085 ft | 453 kts | 318° |
| 2026-04-28 18:37 | -1.56051 | 33.99864 | 34075 ft | 469 kts | 318° |
| 2026-04-28 18:37 | -1.51304 | 33.95299 | 34069 ft | 484 kts | 318° |
| 2026-04-28 18:38 | -1.46383 | 33.90559 | 34050 ft | 497 kts | 318° |
| 2026-04-28 18:38 | -1.41365 | 33.85722 | 34044 ft | 504 kts | 318° |
| 2026-04-28 18:39 | -1.36341 | 33.80841 | 34027 ft | 503 kts | 317° |
| 2026-04-28 18:39 | -1.31324 | 33.75970 | 34018 ft | 502 kts | 317° |
| 2026-04-28 18:40 | -1.26341 | 33.71144 | 33999 ft | 501 kts | 317° |
| 2026-04-28 18:40 | -1.22148 | 33.67083 | 34020 ft | 500 kts | 316° |
| 2026-04-28 18:41 | -1.17157 | 33.62245 | 33992 ft | 499 kts | 316° |
| 2026-04-28 18:41 | -1.12183 | 33.57423 | 33987 ft | 498 kts | 316° |
| 2026-04-28 18:42 | -1.07220 | 33.52611 | 33987 ft | 497 kts | 316° |
| 2026-04-28 18:42 | -1.02290 | 33.47832 | 34003 ft | 496 kts | 316° |
| 2026-04-28 18:43 | -0.97332 | 33.43038 | 34000 ft | 496 kts | 316° |
| 2026-04-28 18:43 | -0.92354 | 33.38251 | 33985 ft | 497 kts | 316° |
| 2026-04-28 18:44 | -0.87334 | 33.33424 | 32959 ft | 512 kts | 316° |
| 2026-04-28 18:44 | -0.82222 | 33.28501 | 31665 ft | 506 kts | 316° |
| 2026-04-28 18:44 | -0.79702 | 33.26073 | 31091 ft | 501 kts | 316° |
| 2026-04-28 18:45 | -0.77200 | 33.23663 | 30518 ft | 497 kts | 316° |
| 2026-04-28 18:45 | -0.74718 | 33.21273 | 29934 ft | 494 kts | 316° |
| 2026-04-28 18:45 | -0.72257 | 33.18904 | 29310 ft | 490 kts | 316° |
| 2026-04-28 18:45 | -0.69875 | 33.16487 | 28716 ft | 485 kts | 313° |
| 2026-04-28 18:46 | -0.67654 | 33.13970 | 28158 ft | 481 kts | 310° |
| 2026-04-28 18:46 | -0.65540 | 33.11457 | 27605 ft | 476 kts | 310° |
| 2026-04-28 18:46 | -0.63424 | 33.08921 | 27061 ft | 472 kts | 310° |
| 2026-04-28 18:46 | -0.61313 | 33.06417 | 26522 ft | 469 kts | 310° |
| 2026-04-28 18:47 | -0.59204 | 33.03949 | 25984 ft | 466 kts | 311° |
| 2026-04-28 18:47 | -0.57094 | 33.01502 | 25438 ft | 463 kts | 311° |
| 2026-04-28 18:47 | -0.54989 | 32.99073 | 24898 ft | 461 kts | 311° |
| 2026-04-28 18:47 | -0.52895 | 32.96660 | 24348 ft | 459 kts | 311° |
| 2026-04-28 18:48 | -0.50806 | 32.94251 | 23843 ft | 457 kts | 311° |
| 2026-04-28 18:48 | -0.48732 | 32.91857 | 23238 ft | 455 kts | 311° |
| 2026-04-28 18:48 | -0.46662 | 32.89467 | 22654 ft | 452 kts | 311° |
| 2026-04-28 18:48 | -0.44596 | 32.87107 | 22126 ft | 448 kts | 313° |
| 2026-04-28 18:49 | -0.42428 | 32.84886 | 21592 ft | 444 kts | 316° |
| 2026-04-28 18:49 | -0.40954 | 32.83471 | 21252 ft | 442 kts | 317° |
| 2026-04-28 18:49 | -0.38002 | 32.80705 | 20558 ft | 437 kts | 317° |
| 2026-04-28 18:49 | -0.35789 | 32.78625 | 20064 ft | 434 kts | 317° |
| 2026-04-28 18:50 | -0.33609 | 32.76554 | 19553 ft | 431 kts | 317° |
| 2026-04-28 18:50 | -0.31449 | 32.74482 | 19039 ft | 429 kts | 316° |
| 2026-04-28 18:50 | -0.29308 | 32.72416 | 18526 ft | 427 kts | 316° |
| 2026-04-28 18:50 | -0.27180 | 32.70359 | 17964 ft | 424 kts | 316° |
| 2026-04-28 18:51 | -0.25066 | 32.68313 | 17426 ft | 421 kts | 316° |
| 2026-04-28 18:51 | -0.22964 | 32.66281 | 16908 ft | 417 kts | 316° |
| 2026-04-28 18:51 | -0.20892 | 32.64281 | 16426 ft | 413 kts | 316° |
| 2026-04-28 18:51 | -0.18811 | 32.62344 | 15925 ft | 403 kts | 323° |
| 2026-04-28 18:52 | -0.16382 | 32.61004 | 15469 ft | 398 kts | 342° |
| 2026-04-28 18:52 | -0.13703 | 32.60458 | 15019 ft | 389 kts | 353° |
| 2026-04-28 18:52 | -0.11022 | 32.60131 | 14558 ft | 387 kts | 353° |
| 2026-04-28 18:52 | -0.08360 | 32.59799 | 14087 ft | 385 kts | 353° |
| 2026-04-28 18:53 | -0.05713 | 32.59455 | 13592 ft | 383 kts | 352° |
| 2026-04-28 18:53 | -0.03080 | 32.59100 | 13095 ft | 380 kts | 352° |
| 2026-04-28 18:53 | -0.00481 | 32.58741 | 12623 ft | 371 kts | 352° |
| 2026-04-28 18:53 | 0.02004 | 32.58396 | 12215 ft | 349 kts | 352° |
| 2026-04-28 18:54 | 0.04317 | 32.58074 | 12052 ft | 323 kts | 352° |
| 2026-04-28 18:54 | 0.06459 | 32.57776 | 11726 ft | 307 kts | 352° |
| 2026-04-28 18:54 | 0.08526 | 32.57490 | 11264 ft | 293 kts | 352° |
| 2026-04-28 18:54 | 0.10503 | 32.57215 | 10948 ft | 281 kts | 352° |
| 2026-04-28 18:55 | 0.12417 | 32.56950 | 10682 ft | 276 kts | 352° |
| 2026-04-28 18:55 | 0.13704 | 32.56771 | 10510 ft | 278 kts | 352° |
| 2026-04-28 18:55 | 0.16232 | 32.56420 | 10160 ft | 282 kts | 352° |
| 2026-04-28 18:55 | 0.18179 | 32.56149 | 9859 ft | 282 kts | 352° |
| 2026-04-28 18:56 | 0.20117 | 32.55881 | 9561 ft | 280 kts | 352° |
| 2026-04-28 18:56 | 0.22037 | 32.55614 | 9272 ft | 277 kts | 352° |
| 2026-04-28 18:56 | 0.23922 | 32.55280 | 8987 ft | 274 kts | 340° |
| 2026-04-28 18:56 | 0.25500 | 32.54268 | 8722 ft | 271 kts | 311° |
| 2026-04-28 18:57 | 0.26427 | 32.52635 | 8485 ft | 274 kts | 287° |
| 2026-04-28 18:57 | 0.26633 | 32.50738 | 8201 ft | 278 kts | 264° |
| 2026-04-28 18:57 | 0.26354 | 32.48825 | 7933 ft | 278 kts | 262° |
| 2026-04-28 18:57 | 0.26066 | 32.46919 | 7656 ft | 276 kts | 262° |
| 2026-04-28 18:58 | 0.25789 | 32.45026 | 7384 ft | 274 kts | 262° |
| 2026-04-28 18:58 | 0.25428 | 32.43228 | 7093 ft | 262 kts | 247° |
| 2026-04-28 18:58 | 0.24358 | 32.41852 | 6809 ft | 245 kts | 212° |
| 2026-04-28 18:58 | 0.22818 | 32.41309 | 6608 ft | 232 kts | 185° |
| 2026-04-28 18:59 | 0.21235 | 32.41367 | 6403 ft | 224 kts | 173° |
| 2026-04-28 18:59 | 0.19716 | 32.41590 | 6223 ft | 219 kts | 172° |
| 2026-04-28 18:59 | 0.18224 | 32.41819 | 5973 ft | 212 kts | 172° |
| 2026-04-28 18:59 | 0.16828 | 32.42029 | 5755 ft | 195 kts | 172° |
| 2026-04-28 19:00 | 0.15525 | 32.42222 | 5543 ft | 188 kts | 172° |
| 2026-04-28 19:00 | 0.14223 | 32.42413 | 5338 ft | 189 kts | 172° |
| 2026-04-28 19:00 | 0.12956 | 32.42592 | 5126 ft | 178 kts | 172° |
| 2026-04-28 19:00 | 0.11781 | 32.42757 | 4889 ft | 162 kts | 172° |
| 2026-04-28 19:01 | 0.10678 | 32.42911 | 4706 ft | 159 kts | 172° |
| 2026-04-28 19:01 | 0.09606 | 32.43060 | 4506 ft | 155 kts | 172° |
| 2026-04-28 19:01 | 0.08529 | 32.43211 | 4414 ft | 159 kts | 172° |
| 2026-04-28 19:01 | 0.07414 | 32.43362 | 4179 ft | 160 kts | 172° |
| 2026-04-28 19:02 | 0.06328 | 32.43513 | 3985 ft | 157 kts | 172° |
| 2026-04-28 19:02 | 0.05242 | 32.43672 | 3810 ft | 157 kts | 173° |
| 2026-04-28 19:02 | 0.04224 | 32.43808 | 3787 ft | 134 kts | 172° |
| 2026-04-28 19:02 | 0.03456 | 32.43914 | 3776 ft | 89 kts | 172° |
| 2026-04-28 19:03 | 0.02997 | 32.43987 | 3771 ft | 45 kts | 157° |
| 2026-04-28 19:03 | 0.02832 | 32.44151 | 3775 ft | 21 kts | 74° |
| 2026-04-28 19:03 | 0.02872 | 32.44167 | 3767 ft | 11 kts | 359° |
| 2026-04-28 19:03 | 0.03030 | 32.44145 | 3771 ft | 35 kts | 353° |
| 2026-04-28 19:04 | 0.03313 | 32.44106 | 3781 ft | 41 kts | 352° |
| 2026-04-28 19:04 | 0.03586 | 32.44070 | 3773 ft | 38 kts | 353° |
| 2026-04-28 19:04 | 0.03835 | 32.44034 | 3788 ft | 35 kts | 350° |
| 2026-04-28 19:04 | 0.04060 | 32.44004 | 3783 ft | 30 kts | 353° |
| 2026-04-28 19:05 | 0.04186 | 32.43998 | 3785 ft | 13 kts | 29° |
| 2026-04-28 19:05 | 0.04219 | 32.44081 | 3785 ft | 13 kts | 82° |
| 2026-04-28 19:05 | 0.04257 | 32.44141 | 3790 ft | 5 kts | 17° |
| 2026-04-28 19:05 | 0.04292 | 32.44136 | 3790 ft | 5 kts | 350° |
| 2026-04-28 19:06 | 0.04343 | 32.44127 | 3787 ft | 10 kts | 350° |
| 2026-04-28 19:06 | 0.04396 | 32.44119 | 3792 ft | 13 kts | 353° |
| 2026-04-28 19:06 | 0.04450 | 32.44159 | 3791 ft | 7 kts | 72° |
| 2026-04-28 19:06 | 0.04454 | 32.44181 | 3792 ft | 2 kts | 82° |
| 2026-04-28 19:07 | 0.04456 | 32.44195 | 3793 ft | 2 kts | 82° |
| 2026-04-28 19:07 | 0.04456 | 32.44198 | 3789 ft | 0 kts | 82° |